Time;durP1;ratioP1;P1;durP2;ratioP2;P2;SDS_P1;SDS_P2;PMS_P1;PMS_P2;Temp;Humidity;BMP_temperature;BMP_pressure;BME280_temperature;BME280_humidity;BME280_pressure;Samples;Min_cycle;Max_cycle;Signal;HPM_P1;HPM_P2
2021/10/12 00:01:14;;;;;;;3.60;0.73;;;11.10;99.90;;;;;;5123474;27;20514;-79
2021/10/12 00:03:40;;;;;;;5.70;0.80;;;11.10;99.90;;;;;;5106471;27;20039;-78
2021/10/12 00:06:07;;;;;;;2.95;0.50;;;11.10;99.90;;;;;;5094395;27;20034;-78
2021/10/12 00:08:34;;;;;;;4.88;0.70;;;11.10;99.90;;;;;;5126208;27;20035;-78
2021/10/12 00:11:01;;;;;;;4.82;0.60;;;11.00;99.90;;;;;;5088921;27;20478;-77
2021/10/12 00:13:27;;;;;;;6.38;0.70;;;11.00;99.90;;;;;;5083056;27;20046;-78
2021/10/12 00:15:54;;;;;;;8.20;0.80;;;11.00;99.90;;;;;;5110179;27;20039;-78
2021/10/12 00:18:21;;;;;;;3.83;0.70;;;11.10;99.90;;;;;;5116011;27;20039;-78
2021/10/12 00:20:47;;;;;;;7.07;0.50;;;11.00;99.90;;;;;;5111471;27;20050;-78
2021/10/12 00:23:14;;;;;;;4.25;0.70;;;11.00;99.90;;;;;;5094086;27;20101;-78
2021/10/12 00:25:41;;;;;;;4.90;0.88;;;11.00;99.90;;;;;;5107344;27;20514;-78
2021/10/12 00:28:07;;;;;;;3.80;0.57;;;11.00;99.90;;;;;;5105233;27;20043;-78
2021/10/12 00:30:34;;;;;;;2.58;0.47;;;11.00;99.90;;;;;;5097064;27;20045;-78
2021/10/12 00:33:01;;;;;;;5.43;0.80;;;11.00;99.90;;;;;;5112157;27;20489;-78
2021/10/12 00:35:27;;;;;;;5.63;0.60;;;11.00;99.90;;;;;;5107472;27;20702;-78
2021/10/12 00:37:54;;;;;;;4.82;0.60;;;11.00;99.90;;;;;;5113384;27;20066;-78
2021/10/12 00:40:21;;;;;;;7.22;0.65;;;11.00;99.90;;;;;;5093446;27;20043;-78
2021/10/12 00:42:47;;;;;;;6.10;0.88;;;11.00;99.90;;;;;;5113087;27;20042;-78
2021/10/12 00:45:15;;;;;;;7.43;1.33;;;11.00;99.90;;;;;;5118063;27;20499;-77
2021/10/12 00:47:58;;;;;;;5.07;0.88;;;11.00;99.90;;;;;;5112920;27;20038;-76
2021/10/12 00:50:26;;;;;;;3.63;0.90;;;11.00;99.90;;;;;;5103966;27;20031;-75
2021/10/12 00:52:53;;;;;;;6.45;0.80;;;11.00;99.90;;;;;;5091323;27;20488;-78
2021/10/12 00:55:21;;;;;;;2.95;0.60;;;11.00;99.90;;;;;;5096145;27;20046;-78
2021/10/12 00:57:48;;;;;;;7.63;1.20;;;11.00;99.90;;;;;;5109442;27;20614;-78
2021/10/12 01:00:15;;;;;;;5.57;0.82;;;11.00;99.90;;;;;;5116667;27;20051;-78
2021/10/12 01:02:42;;;;;;;4.25;1.30;;;11.00;99.90;;;;;;5111594;27;20108;-78
2021/10/12 01:05:09;;;;;;;5.60;1.00;;;11.00;99.90;;;;;;5106600;27;20043;-78
2021/10/12 01:07:36;;;;;;;6.38;0.95;;;11.00;99.90;;;;;;5118229;27;20435;-78
2021/10/12 01:10:04;;;;;;;5.70;1.23;;;11.00;99.90;;;;;;5113078;27;20031;-77
2021/10/12 01:12:31;;;;;;;3.15;0.70;;;11.00;99.90;;;;;;5120669;27;20545;-78
2021/10/12 01:14:58;;;;;;;5.13;0.80;;;11.00;99.90;;;;;;5111721;27;20046;-78
2021/10/12 01:17:25;;;;;;;9.10;1.00;;;11.00;99.90;;;;;;5081090;27;20513;-78
2021/10/12 01:19:51;;;;;;;5.07;0.85;;;11.00;99.90;;;;;;5105592;28;20046;-78
2021/10/12 01:22:18;;;;;;;6.43;0.95;;;11.00;99.90;;;;;;5117712;27;21039;-78
2021/10/12 01:24:45;;;;;;;6.13;0.70;;;11.00;99.90;;;;;;5086955;27;20042;-78
2021/10/12 01:27:11;;;;;;;4.40;1.02;;;11.00;99.90;;;;;;5096567;27;20039;-78
2021/10/12 01:29:38;;;;;;;7.80;1.05;;;11.00;99.90;;;;;;5120815;27;20036;-78
2021/10/12 01:32:05;;;;;;;4.65;0.73;;;11.00;99.90;;;;;;5093779;27;20055;-78
2021/10/12 01:34:50;;;;;;;4.07;0.55;;;11.00;99.90;;;;;;5109643;27;20042;-78
2021/10/12 01:37:17;;;;;;;5.95;0.80;;;11.00;99.90;;;;;;5109725;27;20042;-78
2021/10/12 01:39:43;;;;;;;3.58;0.75;;;11.00;99.90;;;;;;5108526;27;20503;-78
2021/10/12 01:42:10;;;;;;;6.25;0.95;;;10.90;99.90;;;;;;5095180;27;20061;-78
2021/10/12 01:44:38;;;;;;;6.38;1.00;;;10.90;99.90;;;;;;5124386;27;20483;-78
2021/10/12 01:47:04;;;;;;;4.82;0.80;;;10.90;99.90;;;;;;5107903;27;20035;-78
2021/10/12 01:49:31;;;;;;;6.72;0.85;;;10.90;99.90;;;;;;5115114;27;20032;-77
2021/10/12 01:51:58;;;;;;;5.93;1.13;;;10.90;99.90;;;;;;5115190;27;20048;-78
2021/10/12 01:54:25;;;;;;;5.35;0.90;;;10.90;99.90;;;;;;5091344;27;20413;-78
2021/10/12 01:56:53;;;;;;;7.22;1.20;;;10.90;99.90;;;;;;5126758;27;20030;-78
2021/10/12 01:59:20;;;;;;;3.25;1.10;;;10.90;99.90;;;;;;5113369;27;20062;-78
2021/10/12 02:01:47;;;;;;;6.18;2.08;;;10.90;99.90;;;;;;5108121;27;20058;-78
2021/10/12 02:04:13;;;;;;;9.57;1.88;;;10.90;99.90;;;;;;5093975;27;20047;-78
2021/10/12 02:06:40;;;;;;;8.07;2.55;;;10.90;99.90;;;;;;5110424;27;20066;-78
2021/10/12 02:09:07;;;;;;;8.32;2.15;;;10.90;99.90;;;;;;5113766;27;20046;-78
2021/10/12 02:11:34;;;;;;;7.82;2.95;;;10.90;99.90;;;;;;5110782;27;20900;-78
2021/10/12 02:14:01;;;;;;;8.88;3.03;;;10.90;99.90;;;;;;5119317;27;20782;-78
2021/10/12 02:16:28;;;;;;;6.55;2.55;;;10.90;99.90;;;;;;5112446;27;20036;-78
2021/10/12 02:18:54;;;;;;;7.20;2.05;;;10.90;99.90;;;;;;5091986;27;20039;-78
2021/10/12 02:21:21;;;;;;;9.00;2.35;;;10.90;99.90;;;;;;5076880;27;20046;-78
2021/10/12 02:23:47;;;;;;;4.97;2.60;;;10.90;99.90;;;;;;5094152;27;20046;-78
2021/10/12 02:26:15;;;;;;;9.93;3.28;;;10.90;99.90;;;;;;5116662;27;20383;-77
2021/10/12 02:28:41;;;;;;;6.43;2.42;;;10.90;99.90;;;;;;5134222;27;20061;-76
2021/10/12 02:31:08;;;;;;;6.20;2.17;;;10.80;99.90;;;;;;5126403;27;20041;-77
2021/10/12 02:33:34;;;;;;;7.75;1.90;;;10.90;99.90;;;;;;5082614;27;20019;-76
2021/10/12 02:36:01;;;;;;;7.60;2.40;;;10.80;99.90;;;;;;5117131;27;20028;-76
2021/10/12 02:38:28;;;;;;;10.60;2.45;;;10.80;99.90;;;;;;5115523;27;20449;-76
2021/10/12 02:40:55;;;;;;;8.90;2.22;;;10.80;99.90;;;;;;5099688;27;20026;-76
2021/10/12 02:43:22;;;;;;;9.93;2.22;;;10.80;99.90;;;;;;5104981;27;20042;-77
2021/10/12 02:45:48;;;;;;;10.43;1.75;;;10.90;99.90;;;;;;5121326;27;20049;-76
2021/10/12 02:48:15;;;;;;;7.40;1.23;;;10.80;99.90;;;;;;5123611;27;20046;-76
2021/10/12 02:50:45;;;;;;;5.05;1.30;;;10.80;99.90;;;;;;5099645;27;20043;-76
2021/10/12 02:53:12;;;;;;;7.60;1.00;;;10.80;99.90;;;;;;5134801;27;20034;-76
2021/10/12 02:55:38;;;;;;;8.45;1.20;;;10.80;99.90;;;;;;5134797;27;20035;-77
2021/10/12 02:58:05;;;;;;;4.70;1.00;;;10.80;99.90;;;;;;5091672;28;20035;-76
2021/10/12 03:00:32;;;;;;;3.15;0.63;;;10.80;99.90;;;;;;5120134;27;20055;-76
2021/10/12 03:02:59;;;;;;;7.45;1.10;;;10.80;99.90;;;;;;5121423;27;20039;-76
2021/10/12 03:05:26;;;;;;;6.38;1.10;;;10.80;99.90;;;;;;5113709;27;20042;-77
2021/10/12 03:07:52;;;;;;;4.75;0.93;;;10.70;99.90;;;;;;5115180;27;20035;-76
2021/10/12 03:10:19;;;;;;;7.45;1.30;;;10.70;99.90;;;;;;5088873;27;20039;-76
2021/10/12 03:12:46;;;;;;;6.40;1.25;;;10.70;99.90;;;;;;5120862;27;20031;-76
2021/10/12 03:15:12;;;;;;;6.90;0.90;;;10.70;99.90;;;;;;5108113;27;20038;-76
2021/10/12 03:17:38;;;;;;;6.60;1.00;;;10.70;99.90;;;;;;5104826;27;20480;-76
2021/10/12 03:20:06;;;;;;;5.07;0.98;;;10.70;99.90;;;;;;5094471;27;20046;-77
2021/10/12 03:22:33;;;;;;;8.82;1.13;;;10.70;99.90;;;;;;5088955;27;20039;-77
2021/10/12 03:24:59;;;;;;;12.02;1.20;;;10.70;99.90;;;;;;5070962;27;20499;-76
2021/10/12 03:27:26;;;;;;;4.63;0.80;;;10.70;99.90;;;;;;5106072;27;20043;-76
2021/10/12 03:29:52;;;;;;;5.32;0.90;;;10.70;99.90;;;;;;5135064;27;20042;-76
2021/10/12 03:32:18;;;;;;;3.95;0.57;;;10.70;99.90;;;;;;5071719;27;20066;-77
2021/10/12 03:34:45;;;;;;;7.70;1.25;;;10.60;99.90;;;;;;5092496;27;20030;-76
2021/10/12 03:37:11;;;;;;;5.18;0.88;;;10.60;99.90;;;;;;5110110;27;20038;-77
2021/10/12 03:39:38;;;;;;;5.93;1.25;;;10.60;99.90;;;;;;5115540;27;20043;-77
2021/10/12 03:42:05;;;;;;;5.05;0.60;;;10.60;99.90;;;;;;5106151;27;20048;-77
2021/10/12 03:44:31;;;;;;;4.53;0.60;;;10.60;99.90;;;;;;5089989;27;20051;-76
2021/10/12 03:46:58;;;;;;;3.28;0.50;;;10.60;99.90;;;;;;5092778;27;20035;-76
2021/10/12 03:49:24;;;;;;;7.03;0.50;;;10.60;99.90;;;;;;5122721;27;20049;-76
2021/10/12 03:51:50;;;;;;;3.80;0.50;;;10.60;99.90;;;;;;5108004;27;20064;-77
2021/10/12 03:54:17;;;;;;;4.63;0.50;;;10.60;99.90;;;;;;5094594;27;20039;-76
2021/10/12 03:56:43;;;;;;;2.47;0.40;;;10.60;99.90;;;;;;5107180;27;20387;-77
2021/10/12 03:59:10;;;;;;;8.70;0.55;;;10.60;99.90;;;;;;5126122;27;20919;-77
2021/10/12 04:01:36;;;;;;;3.20;0.60;;;10.60;99.90;;;;;;5093552;27;20046;-77
2021/10/12 04:04:03;;;;;;;3.88;0.77;;;10.60;99.90;;;;;;5125660;27;20042;-77
2021/10/12 04:06:30;;;;;;;3.55;0.40;;;10.60;99.90;;;;;;5121443;27;20506;-76
2021/10/12 04:08:56;;;;;;;3.40;0.50;;;10.60;99.90;;;;;;5094860;27;20396;-76
2021/10/12 04:11:23;;;;;;;5.95;0.75;;;10.60;99.90;;;;;;5122311;27;20032;-77
2021/10/12 04:13:50;;;;;;;6.30;0.50;;;10.60;99.90;;;;;;5075865;27;20039;-77
2021/10/12 04:16:16;;;;;;;4.57;1.05;;;10.60;99.90;;;;;;5108202;27;20089;-76
2021/10/12 04:18:43;;;;;;;3.53;0.63;;;10.60;99.90;;;;;;5093658;27;20046;-76
2021/10/12 04:21:09;;;;;;;4.70;0.60;;;10.60;99.90;;;;;;5108852;27;20062;-77
2021/10/12 04:23:37;;;;;;;5.45;0.60;;;10.60;99.90;;;;;;5122913;27;20046;-76
2021/10/12 04:26:06;;;;;;;4.82;0.50;;;10.60;99.90;;;;;;5107214;27;20035;-76
2021/10/12 04:28:33;;;;;;;3.72;0.80;;;10.60;99.90;;;;;;5119778;27;20039;-76
2021/10/12 04:30:59;;;;;;;7.43;0.75;;;10.50;99.90;;;;;;5090412;27;20134;-76
2021/10/12 04:33:25;;;;;;;3.58;0.60;;;10.60;99.90;;;;;;5123900;27;20571;-76
2021/10/12 04:35:52;;;;;;;4.00;0.77;;;10.60;99.90;;;;;;5124383;27;20031;-76
2021/10/12 04:38:18;;;;;;;6.05;0.75;;;10.60;99.90;;;;;;5089345;27;20035;-77
2021/10/12 04:40:45;;;;;;;4.68;0.50;;;10.60;99.90;;;;;;5125389;27;20368;-76
2021/10/12 04:43:11;;;;;;;5.00;0.57;;;10.60;99.90;;;;;;5093408;27;20042;-76
2021/10/12 04:45:39;;;;;;;4.53;0.60;;;10.60;99.90;;;;;;5104516;27;20039;-76
2021/10/12 04:48:05;;;;;;;5.90;0.60;;;10.60;99.90;;;;;;5089984;27;20038;-76
2021/10/12 04:50:32;;;;;;;4.13;0.50;;;10.60;99.90;;;;;;5108452;27;20042;-76
2021/10/12 04:53:00;;;;;;;5.20;0.80;;;10.70;99.90;;;;;;5091960;28;20027;-75
2021/10/12 04:55:29;;;;;;;4.30;0.57;;;10.70;99.90;;;;;;5116154;27;20042;-76
2021/10/12 04:57:56;;;;;;;8.27;0.80;;;10.70;99.90;;;;;;5118366;27;20754;-75
2021/10/12 05:00:23;;;;;;;5.80;0.70;;;10.70;99.90;;;;;;5122440;27;20120;-76
2021/10/12 05:02:50;;;;;;;6.25;0.75;;;10.70;99.90;;;;;;5093073;27;20036;-75
2021/10/12 05:05:16;;;;;;;4.63;0.50;;;10.70;99.90;;;;;;5092833;27;20039;-76
2021/10/12 05:07:43;;;;;;;3.53;0.70;;;10.70;99.90;;;;;;5108434;27;20043;-76
2021/10/12 05:10:09;;;;;;;4.90;0.80;;;10.80;99.90;;;;;;5109483;27;20046;-76
2021/10/12 05:12:36;;;;;;;5.80;0.70;;;10.80;99.90;;;;;;5085755;27;20392;-75
2021/10/12 05:15:03;;;;;;;7.40;0.80;;;10.80;99.90;;;;;;5122655;27;20027;-75
2021/10/12 05:17:37;;;;;;;7.22;1.15;;;10.80;99.90;;;;;;5124215;27;20032;-75
2021/10/12 05:20:05;;;;;;;3.15;0.80;;;10.80;99.90;;;;;;5119041;27;20042;-75
2021/10/12 05:22:31;;;;;;;9.40;1.20;;;10.80;99.90;;;;;;5112946;27;20039;-75
2021/10/12 05:24:59;;;;;;;4.82;0.90;;;10.80;99.90;;;;;;5123291;27;20045;-75
2021/10/12 05:27:25;;;;;;;5.07;0.73;;;10.80;99.90;;;;;;5106877;27;20047;-76
2021/10/12 05:29:51;;;;;;;6.20;1.20;;;10.80;99.90;;;;;;5112019;27;20439;-75
2021/10/12 05:32:18;;;;;;;4.47;0.90;;;10.80;99.90;;;;;;5130685;27;20046;-77
2021/10/12 05:34:44;;;;;;;10.55;1.00;;;10.80;99.90;;;;;;5121729;27;20332;-77
2021/10/12 05:37:11;;;;;;;3.30;1.05;;;10.80;99.90;;;;;;5121826;27;20031;-77
2021/10/12 05:39:37;;;;;;;6.15;1.15;;;10.80;99.90;;;;;;5124113;27;20028;-79
2021/10/12 05:42:04;;;;;;;3.95;0.80;;;10.80;99.90;;;;;;5076612;27;20047;-80
2021/10/12 05:44:30;;;;;;;4.53;0.80;;;10.80;99.90;;;;;;5073123;27;20038;-80
2021/10/12 05:46:57;;;;;;;3.95;0.90;;;10.80;99.90;;;;;;5123011;27;20035;-77
2021/10/12 05:49:23;;;;;;;4.18;1.02;;;10.80;99.90;;;;;;5092908;27;20031;-77
2021/10/12 05:51:50;;;;;;;6.55;1.52;;;10.80;99.90;;;;;;5097500;27;20469;-77
2021/10/12 05:54:19;;;;;;;4.28;0.90;;;10.80;99.90;;;;;;5115168;27;20046;-77
2021/10/12 05:56:48;;;;;;;6.32;1.80;;;10.80;99.90;;;;;;5114256;27;20479;-77
2021/10/12 05:59:15;;;;;;;7.43;2.15;;;10.80;99.90;;;;;;5116873;27;20106;-77
2021/10/12 06:01:41;;;;;;;4.97;1.73;;;10.80;99.90;;;;;;5117502;27;20032;-77
2021/10/12 06:04:08;;;;;;;7.45;2.05;;;10.90;99.90;;;;;;5099859;27;20538;-77
2021/10/12 06:06:35;;;;;;;6.90;1.85;;;10.90;99.90;;;;;;5076316;27;20035;-77
2021/10/12 06:09:03;;;;;;;6.95;2.13;;;10.90;99.90;;;;;;5114010;27;20046;-77
2021/10/12 06:11:29;;;;;;;7.47;2.15;;;10.90;99.90;;;;;;5081035;27;20412;-77
2021/10/12 06:13:56;;;;;;;7.57;2.60;;;10.90;99.90;;;;;;5120382;27;20037;-77
2021/10/12 06:16:23;;;;;;;5.03;2.10;;;11.00;99.90;;;;;;5109060;27;20043;-77
2021/10/12 06:18:50;;;;;;;7.93;2.45;;;11.00;99.90;;;;;;5120744;27;20047;-77
2021/10/12 06:21:16;;;;;;;7.25;3.00;;;11.00;99.90;;;;;;5113187;27;20034;-77
2021/10/12 06:23:43;;;;;;;8.57;3.13;;;11.00;99.90;;;;;;5094684;27;20050;-76
2021/10/12 06:26:09;;;;;;;7.63;2.72;;;11.00;99.90;;;;;;5117801;27;20445;-76
2021/10/12 06:28:36;;;;;;;6.80;2.65;;;11.10;99.90;;;;;;5094285;27;20460;-76
2021/10/12 06:31:03;;;;;;;6.60;2.60;;;11.10;99.90;;;;;;5115012;27;20027;-79
2021/10/12 06:33:29;;;;;;;9.57;4.18;;;11.10;99.90;;;;;;5094312;27;20484;-78
2021/10/12 06:35:55;;;;;;;8.35;3.30;;;11.20;99.90;;;;;;5101154;27;20138;-77
2021/10/12 06:38:22;;;;;;;7.32;4.40;;;11.20;99.90;;;;;;5107858;27;20392;-78
2021/10/12 06:40:48;;;;;;;10.35;4.95;;;11.30;99.90;;;;;;5107165;27;20042;-77
2021/10/12 06:43:15;;;;;;;8.10;4.50;;;11.20;99.90;;;;;;5118155;27;20038;-76
2021/10/12 06:45:41;;;;;;;12.93;5.60;;;11.30;99.90;;;;;;5119169;27;20031;-77
2021/10/12 06:48:08;;;;;;;9.77;4.80;;;11.30;99.90;;;;;;5120927;27;20039;-76
2021/10/12 06:50:35;;;;;;;7.70;4.95;;;11.30;99.90;;;;;;5109751;27;20129;-76
2021/10/12 06:53:03;;;;;;;10.02;5.40;;;11.30;99.90;;;;;;5105529;27;20031;-76
2021/10/12 06:55:29;;;;;;;10.40;6.43;;;11.30;99.90;;;;;;5109163;27;20396;-76
2021/10/12 06:57:57;;;;;;;15.82;8.70;;;11.40;99.90;;;;;;5126321;27;20038;-76
2021/10/12 07:00:23;;;;;;;8.23;6.22;;;11.40;99.90;;;;;;5116658;27;20416;-76
2021/10/12 07:02:49;;;;;;;9.82;6.35;;;11.40;99.90;;;;;;5121939;27;20026;-77
2021/10/12 07:05:17;;;;;;;9.85;5.32;;;11.40;99.90;;;;;;5110345;27;20031;-76
2021/10/12 07:07:44;;;;;;;12.65;5.68;;;11.50;99.90;;;;;;5109234;27;20038;-78
2021/10/12 07:10:12;;;;;;;7.30;5.43;;;11.50;99.90;;;;;;5115523;27;20039;-77
2021/10/12 07:12:38;;;;;;;11.90;5.45;;;11.50;99.90;;;;;;5084558;27;20035;-76
2021/10/12 07:15:06;;;;;;;10.15;5.47;;;11.60;99.90;;;;;;5125656;27;20042;-76
2021/10/12 07:17:33;;;;;;;9.50;5.38;;;11.60;99.90;;;;;;5090448;27;20039;-76
2021/10/12 07:19:59;;;;;;;8.20;4.47;;;11.60;99.90;;;;;;5106517;27;20039;-75
2021/10/12 07:22:26;;;;;;;9.18;4.40;;;11.70;99.90;;;;;;5121208;27;20046;-77
2021/10/12 07:24:53;;;;;;;6.75;4.47;;;11.70;99.90;;;;;;5112295;27;20028;-77
2021/10/12 07:27:21;;;;;;;10.05;5.15;;;11.80;99.90;;;;;;5124272;27;20490;-76
2021/10/12 07:29:49;;;;;;;6.88;4.40;;;11.80;99.90;;;;;;5118935;27;20039;-77
2021/10/12 07:32:16;;;;;;;8.10;3.95;;;11.70;99.90;;;;;;5094346;27;20035;-77
2021/10/12 07:34:43;;;;;;;7.53;3.30;;;11.70;99.90;;;;;;5088544;27;20395;-77
2021/10/12 07:37:10;;;;;;;7.85;3.42;;;11.70;99.90;;;;;;5121295;27;20034;-77
2021/10/12 07:39:36;;;;;;;7.78;3.70;;;11.70;99.90;;;;;;5106186;27;20042;-77
2021/10/12 07:42:06;;;;;;;6.93;3.38;;;11.80;99.90;;;;;;5119150;27;20034;-77
2021/10/12 07:44:32;;;;;;;8.55;3.58;;;11.70;99.90;;;;;;5102684;27;20051;-77
2021/10/12 07:46:59;;;;;;;6.13;2.92;;;11.80;99.90;;;;;;5115563;27;20041;-77
2021/10/12 07:49:25;;;;;;;12.68;4.68;;;11.80;99.90;;;;;;5106253;27;20492;-77
2021/10/12 07:51:52;;;;;;;6.65;4.00;;;11.80;99.90;;;;;;5118846;27;20031;-76
2021/10/12 07:54:25;;;;;;;4.80;3.65;;;11.90;99.90;;;;;;5114272;27;20782;-76
2021/10/12 07:56:51;;;;;;;7.13;3.67;;;11.90;99.90;;;;;;5108442;27;20035;-76
2021/10/12 07:59:18;;;;;;;8.68;4.40;;;11.90;99.90;;;;;;5103775;27;20570;-77
2021/10/12 08:01:45;;;;;;;8.32;5.20;;;11.90;99.90;;;;;;5120521;27;20031;-77
2021/10/12 08:04:11;;;;;;;9.50;4.90;;;11.90;99.90;;;;;;5112376;27;20035;-77
2021/10/12 08:06:39;;;;;;;7.20;4.43;;;12.00;99.90;;;;;;5090479;27;20036;-77
2021/10/12 08:09:05;;;;;;;7.00;3.50;;;12.00;99.90;;;;;;5099671;27;20144;-76
2021/10/12 08:11:32;;;;;;;9.13;3.78;;;12.00;99.90;;;;;;5101389;27;20054;-79
2021/10/12 08:14:02;;;;;;;8.32;5.00;;;12.00;99.90;;;;;;5070708;27;20039;-77
2021/10/12 08:16:32;;;;;;;7.68;3.63;;;12.00;99.90;;;;;;5087062;27;20031;-77
2021/10/12 08:19:03;;;;;;;6.53;4.50;;;12.00;99.90;;;;;;5085993;27;20039;-77
2021/10/12 08:21:30;;;;;;;6.15;3.25;;;12.10;99.90;;;;;;5108155;27;20046;-77
2021/10/12 08:23:58;;;;;;;6.43;3.30;;;12.20;99.90;;;;;;5118383;27;20035;-77
2021/10/12 08:26:27;;;;;;;9.45;4.22;;;12.30;99.90;;;;;;5115259;27;20043;-77
2021/10/12 08:28:56;;;;;;;8.68;3.97;;;12.40;99.90;;;;;;5120788;27;20038;-77
2021/10/12 08:31:24;;;;;;;7.32;3.70;;;12.50;99.90;;;;;;5113479;27;20019;-77
2021/10/12 08:33:51;;;;;;;7.35;3.60;;;12.50;99.90;;;;;;5115442;27;20027;-77
2021/10/12 08:36:17;;;;;;;6.65;3.40;;;12.50;99.90;;;;;;5105795;27;20027;-77
2021/10/12 08:38:45;;;;;;;8.10;3.10;;;12.50;99.90;;;;;;5104172;27;20995;-77
2021/10/12 08:41:15;;;;;;;5.65;2.40;;;12.50;99.90;;;;;;5105315;27;20031;-76
2021/10/12 08:43:41;;;;;;;6.55;2.00;;;12.50;99.90;;;;;;5115722;27;20035;-77
2021/10/12 08:46:08;;;;;;;7.78;2.55;;;12.50;99.90;;;;;;5102757;27;20039;-77
2021/10/12 08:48:35;;;;;;;4.50;1.70;;;12.40;99.90;;;;;;5087782;27;20715;-77
2021/10/12 08:51:06;;;;;;;5.35;1.35;;;12.40;99.90;;;;;;5120529;27;20038;-77
2021/10/12 08:53:33;;;;;;;4.50;1.80;;;12.40;99.90;;;;;;5088978;27;20826;-77
2021/10/12 08:56:01;;;;;;;6.47;2.13;;;12.40;99.90;;;;;;5118485;27;20023;-77
2021/10/12 08:58:28;;;;;;;5.10;1.70;;;12.40;99.90;;;;;;5113752;27;20043;-76
2021/10/12 09:01:11;;;;;;;4.82;1.20;;;12.40;99.90;;;;;;5102285;28;20512;-77
2021/10/12 09:06:34;;;;;;;9.30;1.30;;;12.30;99.90;;;;;;5097592;28;20042;-76
2021/10/12 09:09:07;;;;;;;7.50;1.73;;;12.30;99.90;;;;;;5090646;28;20039;-76
2021/10/12 09:11:34;;;;;;;;;;;12.30;99.90;;;;;;5094887;28;20027;-76
2021/10/12 09:14:05;;;;;;;2.97;0.90;;;12.30;99.90;;;;;;5099861;28;20308;-77
2021/10/12 09:16:34;;;;;;;3.75;0.90;;;12.30;99.90;;;;;;5070018;28;20041;-76
2021/10/12 09:19:03;;;;;;;3.33;0.90;;;12.30;99.90;;;;;;5082589;28;20047;-77
2021/10/12 09:21:35;;;;;;;3.53;1.02;;;12.40;99.90;;;;;;5097866;28;20055;-76
2021/10/12 09:24:03;;;;;;;4.28;1.13;;;12.40;99.90;;;;;;5097998;28;20032;-76
2021/10/12 09:26:33;;;;;;;4.13;0.95;;;12.50;99.90;;;;;;5063899;28;20036;-76
2021/10/12 09:29:24;;;;;;;3.10;0.88;;;12.60;99.90;;;;;;5100783;28;20032;-76
2021/10/12 09:31:54;;;;;;;4.00;1.65;;;12.80;99.90;;;;;;5095227;28;20028;-76
2021/10/12 09:34:23;;;;;;;3.58;1.48;;;12.90;99.90;;;;;;5081740;28;20027;-77
2021/10/12 09:36:52;;;;;;;2.90;1.58;;;13.00;99.90;;;;;;5059681;28;20031;-76
2021/10/12 09:39:28;;;;;;;4.85;1.42;;;13.10;99.90;;;;;;5083084;28;20031;-76
2021/10/12 09:42:00;;;;;;;15.40;8.30;;;13.20;99.90;;;;;;5099026;28;20028;-76
2021/10/12 09:44:31;;;;;;;7.93;4.60;;;13.30;99.90;;;;;;5063899;28;20039;-74
2021/10/12 09:47:13;;;;;;;6.50;3.45;;;13.30;99.90;;;;;;5081636;28;20046;-75
2021/10/12 09:49:41;;;;;;;7.03;3.72;;;13.30;99.90;;;;;;5082426;28;20575;-74
2021/10/12 09:52:10;;;;;;;5.72;3.50;;;13.40;99.90;;;;;;5099157;28;20028;-75
2021/10/12 09:54:49;;;;;;;7.65;3.08;;;13.40;99.90;;;;;;5070066;28;20036;-75
2021/10/12 09:57:17;;;;;;;7.05;3.15;;;13.50;99.90;;;;;;5079137;28;20032;-76
2021/10/12 09:59:44;;;;;;;6.93;2.67;;;13.50;99.90;;;;;;5062004;28;20060;-75
2021/10/12 10:02:36;;;;;;;21.30;3.85;;;13.60;99.90;;;;;;5081971;28;20023;-75
2021/10/12 10:05:03;;;;;;;4.85;1.92;;;13.70;99.90;;;;;;5100867;28;20053;-75
2021/10/12 10:07:34;;;;;;;2.95;1.45;;;13.80;99.90;;;;;;5084092;28;20059;-75
2021/10/12 10:10:04;;;;;;;6.25;1.75;;;14.00;99.90;;;;;;5087840;28;20396;-79
2021/10/12 10:12:31;;;;;;;4.07;1.77;;;14.10;99.90;;;;;;5074586;28;20125;-78
2021/10/12 10:14:58;;;;;;;3.63;1.85;;;14.30;99.90;;;;;;5104092;27;20035;-78
2021/10/12 10:17:24;;;;;;;7.18;1.80;;;14.40;99.90;;;;;;5074733;28;20051;-78
2021/10/12 10:19:52;;;;;;;3.03;1.40;;;14.40;99.90;;;;;;5077608;27;20031;-78
2021/10/12 10:22:38;;;;;;;4.30;1.23;;;14.30;99.90;;;;;;5088186;28;20415;-78
2021/10/12 10:25:32;;;;;;;3.42;1.08;;;14.20;99.90;;;;;;5086584;28;20047;-78
2021/10/12 10:28:24;;;;;;;4.07;1.15;;;14.10;99.90;;;;;;5105946;28;20060;-78
2021/10/12 10:30:52;;;;;;;5.15;0.98;;;14.10;99.90;;;;;;5103792;28;20039;-76
2021/10/12 10:33:26;;;;;;;5.70;1.00;;;14.30;99.90;;;;;;5100859;28;20039;-76
2021/10/12 10:35:57;;;;;;;5.45;0.70;;;14.60;99.90;;;;;;5071220;28;20392;-76
2021/10/12 10:38:25;;;;;;;2.42;0.60;;;14.90;99.90;;;;;;5102285;28;20028;-76
2021/10/12 10:41:13;;;;;;;2.13;0.70;;;15.20;99.90;;;;;;5086896;28;20046;-76
2021/10/12 10:43:48;;;;;;;2.78;0.60;;;15.30;99.90;;;;;;5090759;28;20040;-76
2021/10/12 10:46:36;;;;;;;2.22;0.50;;;15.30;99.90;;;;;;5103013;28;20039;-76
2021/10/12 10:49:28;;;;;;;3.92;0.70;;;15.30;99.90;;;;;;5087280;28;20043;-76
2021/10/12 10:52:04;;;;;;;2.10;0.50;;;15.30;99.90;;;;;;5083764;28;20498;-77
2021/10/12 10:54:37;;;;;;;1.63;0.50;;;15.20;99.90;;;;;;5085866;28;20032;-74
2021/10/12 10:57:20;;;;;;;3.40;0.70;;;15.10;99.90;;;;;;5083031;28;20369;-75
2021/10/12 10:59:48;;;;;;;2.58;0.60;;;15.00;99.90;;;;;;5096366;28;20495;-80
2021/10/12 11:02:26;;;;;;;2.17;0.30;;;15.10;99.90;;;;;;5096956;28;20039;-77
2021/10/12 11:04:53;;;;;;;2.42;0.40;;;15.40;99.90;;;;;;5080778;28;20032;-77
2021/10/12 11:07:24;;;;;;;1.60;0.40;;;15.60;99.90;;;;;;5084542;28;20047;-77
2021/10/12 11:09:52;;;;;;;3.42;0.50;;;16.00;99.90;;;;;;5066360;28;20511;-77
2021/10/12 11:12:21;;;;;;;2.92;0.40;;;16.40;99.90;;;;;;5096519;28;20043;-77
2021/10/12 11:14:48;;;;;;;1.63;0.43;;;16.80;99.90;;;;;;5092824;28;20023;-77
2021/10/12 11:17:15;;;;;;;2.67;0.50;;;16.90;99.90;;;;;;5085092;28;20036;-77
2021/10/12 11:19:54;;;;;;;0.90;0.32;;;16.90;99.90;;;;;;5091136;28;20043;-77
2021/10/12 11:22:21;;;;;;;2.75;0.77;;;16.90;99.90;;;;;;5103617;28;20046;-77
2021/10/12 11:24:48;;;;;;;1.77;0.43;;;16.80;99.90;;;;;;5086243;28;20043;-76
2021/10/12 11:27:15;;;;;;;0.68;0.20;;;16.70;99.90;;;;;;5086650;28;20663;-76
2021/10/12 11:29:42;;;;;;;1.10;0.35;;;16.40;99.90;;;;;;5085740;28;20035;-76
2021/10/12 11:32:09;;;;;;;2.17;0.38;;;16.00;99.90;;;;;;5086637;28;20059;-77
2021/10/12 11:34:36;;;;;;;3.05;0.17;;;15.60;99.90;;;;;;5101842;28;20039;-76
2021/10/12 11:37:10;;;;;;;2.65;0.20;;;15.30;99.90;;;;;;5102494;28;20039;-76
2021/10/12 11:39:39;;;;;;;0.50;0.10;;;15.00;99.90;;;;;;5101672;28;20043;-77
2021/10/12 11:42:06;;;;;;;0.70;0.20;;;15.00;99.90;;;;;;5103356;28;20035;-76
2021/10/12 11:44:34;;;;;;;1.15;0.10;;;14.90;99.90;;;;;;5102636;28;20035;-76
2021/10/12 11:47:02;;;;;;;1.25;0.10;;;15.10;99.90;;;;;;5085555;28;20043;-76
2021/10/12 11:49:36;;;;;;;0.68;0.10;;;15.20;99.90;;;;;;5085041;28;20069;-76
2021/10/12 11:52:09;;;;;;;0.22;0.10;;;15.30;99.90;;;;;;5083959;28;20481;-76
2021/10/12 11:54:36;;;;;;;1.63;0.20;;;15.40;99.90;;;;;;5069848;28;20034;-76
2021/10/12 11:57:03;;;;;;;1.95;0.20;;;15.40;99.90;;;;;;5103495;28;20031;-76
2021/10/12 11:59:37;;;;;;;1.92;0.20;;;15.40;99.90;;;;;;5102296;28;20047;-76
2021/10/12 12:02:07;;;;;;;1.42;0.17;;;15.40;99.90;;;;;;5103476;28;20035;-77
2021/10/12 12:04:36;;;;;;;1.23;0.10;;;15.50;99.90;;;;;;5099214;28;20404;-77
2021/10/12 12:07:07;;;;;;;1.45;0.20;;;15.60;99.90;;;;;;5103693;28;20043;-76
2021/10/12 12:09:38;;;;;;;2.63;0.35;;;15.90;99.90;;;;;;5102187;28;20038;-76
2021/10/12 12:12:06;;;;;;;1.35;0.17;;;16.00;99.90;;;;;;5081204;28;20035;-77
2021/10/12 12:14:33;;;;;;;0.82;0.20;;;16.10;99.90;;;;;;5101683;28;20036;-77
2021/10/12 12:17:10;;;;;;;1.05;0.20;;;16.10;99.90;;;;;;5102691;28;20039;-76
2021/10/12 12:19:41;;;;;;;1.13;0.20;;;16.40;99.90;;;;;;5099523;28;20827;-76
2021/10/12 12:22:22;;;;;;;0.70;0.30;;;16.90;99.90;;;;;;5100675;28;21124;-77
2021/10/12 12:25:06;;;;;;;1.67;0.20;;;17.30;99.90;;;;;;5101655;28;20065;-77
2021/10/12 12:27:53;;;;;;;1.20;0.20;;;17.40;99.90;;;;;;5102206;28;20479;-77
2021/10/12 12:30:34;;;;;;;1.08;0.20;;;17.40;99.90;;;;;;5101984;28;20054;-77
2021/10/12 12:33:01;;;;;;;1.52;0.30;;;17.90;99.90;;;;;;5099020;28;20259;-77
2021/10/12 12:35:27;;;;;;;3.47;0.32;;;18.50;99.90;;;;;;5082542;28;20028;-77
2021/10/12 12:38:02;;;;;;;1.23;0.20;;;18.70;99.90;;;;;;5102072;28;20047;-77
2021/10/12 12:40:34;;;;;;;2.55;0.20;;;18.30;99.90;;;;;;5101938;28;20046;-77
2021/10/12 12:43:23;;;;;;;2.03;0.30;;;18.10;99.90;;;;;;5082907;28;20042;-77
2021/10/12 12:46:09;;;;;;;1.02;0.30;;;18.30;99.90;;;;;;5101114;28;20392;-77
2021/10/12 12:48:36;;;;;;;1.08;0.30;;;19.00;99.90;;;;;;5099981;28;20047;-77
2021/10/12 12:51:06;;;;;;;2.10;0.32;;;19.40;99.90;;;;;;5103611;28;20039;-78
2021/10/12 12:53:45;;;;;;;1.85;0.20;;;19.70;99.90;;;;;;5101180;28;20036;-77
2021/10/12 12:56:16;;;;;;;2.22;0.30;;;19.30;99.90;;;;;;5102098;28;20027;-77